ZSSS/SHA METAR and TAF weather

Enter ICAO airport designator
Station Type Date Time Source
ZSSS METAR 2022/07/01 02:00 UTC NOAA

ZSSS 010200Z 15009MPS 9999 SCT026 32/24 Q1010 NOSIG


Station Type Date Time Source
ZSSS Decoded METAR 2022/07/01 02:00 UTC NOAA

Shanghai / Hongqiao, China (ZSSS) 31-10N 121-26E 3M
Jun 30, 2022 - 10:00 PM EDT / 2022.07.01 0200 UTC
Wind: from the SSE (150 degrees) at 20 MPH (17 KT):0
Visibility: greater than 7 mile(s):0
Sky conditions: partly cloudy
Temperature: 89 F (32 C)
Heat index: 98.4 F (36.9 C):1
Dew Point: 75 F (24 C)
Relative Humidity: 62%
Pressure (altimeter): 29.83 in. Hg (1010 hPa)
ob: ZSSS 010200Z 15009MPS 9999 SCT026 32/24 Q1010 NOSIG
cycle: 2

Station Type Date Time Source
ZSSS TAF 2022/06/30 18:03 UTC NOAA

TAF ZSSS 301505Z 3018/0118 15005MPS 6000 BKN020 TX33/0106Z TN27/3021Z

Example: see airport list